x

West Santa Barbara 38 Nm West Of Santa Barbara, Ca (46054) Wave Buoy

8:50 - Sat 30th Aug 2014 All times are PDT. -7 hours from GMT.

  • Sig Wave height 5.6ft
  • Swell Direction
  • Peak Period 6s
  • Average Period 5s
  • Wind
    27mph, 34mph gusts
  • Sea Temp 61°f
  • Luft Temp 64°f
  • Sea Pressure 1008.1mb
  • West Santa Barbara  38 Nm West Of Santa Barbara, Ca
  • West Santa Barbara  38 Nm West Of Santa Barbara, Ca

More Historic Weather Station data

Upgrade to MSW Pro to gain access to the past 30 days of data for over 8000 Wavebouys and Weather Stations around the globe.

Join Pro

Comparision Forecast

View Surf forecast
   
Sa 08/30 8:50 5.5ft 6s 5s 27 34 mph 1008.1mb 61f 64f
7:50 6ft 6s 5s 31 36 mph 1007.4mb 61f 64f
6:50 6ft 7s 5s 27 31 mph 1007.6mb 61f 64f
5:50 5.5ft 6s 5s 29 34 mph 1007.3mb 61f 64f
4:50 5ft 6s 5s 27 31 mph 1007.5mb 61f 65f
3:50 5ft 7s 5s 22 27 mph 1008.1mb 61f 64f
2:50 5ft 7s 5s 22 25 mph 1008.7mb 61f 64f
1:50 5ft 7s 6s 22 25 mph 1009.1mb 61f 63f
12:50 5.5ft 7s 5s 20 25 mph 1009.3mb 61f 63f
11:50 5ft 7s 6s 18 22 mph 1009.7mb 61f 62f
10:50 5ft 8s 6s 16 20 mph 1010.1mb 61f 62f
9:50 4.5ft 7s 6s 16 20 mph 1010.1mb 61f 61f
8:50 5ft 7s 6s 20 22 mph 1009.6mb 61f 61f
7:50 5ft 7s 5s 16 20 mph 1009.5mb 61f 60f
6:50 5.5ft 7s 5s 22 27 mph 1009mb 61f 60f
5:50 5.5ft 7s 5s 27 29 mph 1008.3mb 61f 59f
4:50 6ft 5s 5s 22 27 mph 1007.9mb 61f 60f
3:50 6ft 6s 6s 25 29 mph 1008mb 61f 59f
2:50 6.5ft 6s 5s 27 34 mph 1008mb 61f 59f
1:50 7ft 6s 5s 29 34 mph 1008.3mb 62f 60f
12:50 6.5ft 7s 5s 29 38 mph 1008.5mb 62f 61f
Fr 08/29 11:50 6.5ft 6s 5s 29 34 mph 1008.9mb 63f 61f
10:50 6ft 6s 5s 27 34 mph 1009.1mb 63f 61f
9:50 6ft 6s 5s 27 34 mph 1009.6mb 63f 61f
8:50 6ft 6s 5s 27 31 mph 1009.5mb 63f 62f
7:50 5.5ft 6s 5s 27 31 mph 1009.2mb 62f 62f
6:50 6ft 6s 5s 27 31 mph 1009.3mb 62f 62f
5:50 5.5ft 6s 5s 27 31 mph 1009.7mb 62f 62f
4:50 5ft 6s 5s 25 29 mph 1010.1mb 62f 62f
3:50 5ft 6s 5s 22 27 mph 1010.6mb 62f 62f
2:50 5ft 10s 5s 22 29 mph 1010.8mb 62f 62f
1:50 5ft 5s 5s 20 25 mph 1011.2mb 62f 62f
12:50 5ft 6s 5s 22 27 mph 1011.4mb 62f 62f
11:50 4.5ft 10s 5s 22 29 mph 1011.4mb 62f 61f
10:50 6ft 11s 6s 22 27 mph 1011.7mb 62f 60f
9:50 5ft 6s 5s 22 27 mph 1011.8mb 62f 60f
8:50 4.5ft 11s 5s 25 29 mph 1011.6mb 62f 60f
7:50 5ft 6s 5s 22 29 mph 1011.6mb 62f 61f
6:50 5ft 6s 5s 22 27 mph 1011.4mb 62f 61f
5:50 5.5ft 5s 5s 25 29 mph 1011.2mb 62f 61f
4:50 6ft 6s 5s 27 34 mph 1011mb 62f 61f
3:50 5.5ft 6s 5s 27 34 mph 1010.9mb 62f 61f
2:50 6ft 6s 5s 29 34 mph 1010.8mb 62f 61f
1:50 5.5ft 6s 5s 27 31 mph 1011mb 62f 61f
12:50 6ft 11s 5s 25 31 mph 1011.6mb 63f 62f
Do 08/28 11:50 6.5ft 11s 6s 29 34 mph 1012.1mb 63f 62f
10:50 5.5ft 11s 5s 27 34 mph 1012.6mb 63f 62f
9:50 6ft 12s 6s 25 29 mph 1012.9mb 63f 62f
8:50 5ft 11s 5s 22 27 mph 1012.7mb 63f 63f
7:50 6ft 12s 5s 22 27 mph 1012.7mb 63f 63f
6:50 6ft 12s 5s 22 27 mph 1012.5mb 63f 63f
5:50 6ft 12s 6s 25 29 mph 1012.4mb 63f 63f
4:50 5ft 13s 6s 25 27 mph 1013.3mb 63f 63f
3:50 6ft 12s 6s 22 27 mph 1014mb 62f 63f
2:50 5.5ft 11s 6s 22 27 mph 1014.4mb 62f 63f
1:50 6ft 12s 6s 22 27 mph 1014.7mb 62f 63f
12:50 6ft 13s 6s 22 27 mph 1015.2mb 63f 62f
11:50 6ft 13s 6s 22 27 mph 1015.4mb 62f 62f
10:50 5ft 12s 6s 20 25 mph 1016mb 62f 62f
9:50 5.5ft 12s 6s 22 27 mph 1015.8mb 62f 62f
8:50 5.5ft 13s 6s 20 25 mph 1015.6mb 62f 62f
7:50 6ft 13s 6s 20 25 mph 1015.4mb 62f 62f
6:50 6ft 13s 6s 20 25 mph 1015.2mb 62f 62f
5:50 6ft 13s 7s 20 25 mph 1015.1mb 62f 61f
4:50 5.5ft 14s 6s 20 25 mph 1014.9mb 62f 62f
3:50 6ft 13s 7s 20 25 mph 1015.1mb 62f 62f
2:50 6ft 13s 7s 20 25 mph 1015.3mb 62f 63f
1:50 5.5ft 13s 7s 22 25 mph 1015.8mb 62f 63f
12:50 5.5ft 14s 6s 20 22 mph 1015.8mb 62f 63f
Mi 08/27 11:50 5ft 14s 6s 20 25 mph 1015.9mb 62f 63f
10:50 5ft 14s 6s 20 25 mph 1016mb 62f 64f
9:50 5ft 14s 6s 20 22 mph 1016mb 63f 64f
8:50 5ft 14s 6s 20 22 mph 1015.6mb 63f 64f
7:50 5ft 14s 7s 18 20 mph 1015.4mb 63f 64f
6:50 5ft 14s 7s 16 20 mph 1015.3mb 63f 64f
5:50 5ft 15s 7s 18 20 mph 1015.3mb 64f 64f
4:50 5ft 15s 8s 16 18 mph 1015.5mb 64f 64f
3:50 5ft 15s 8s 16 18 mph 1015.7mb 64f 64f
2:50 5ft 15s 8s 16 18 mph 1016.1mb 63f 64f
1:50 4.5ft 16s 8s 13 18 mph 1016.7mb 63f 64f
12:50 5ft 15s 9s 13 16 mph 1017mb 63f 63f
11:50 4.5ft 16s 8s 13 16 mph 1017.3mb 63f 63f
10:50 4.5ft 13s 8s 11 13 mph 1017.2mb 63f 63f
9:50 4.5ft 15s 8s 4 7 mph 1016.9mb 63f 64f
8:50 5ft 16s 8s 7
mph
1016.5mb 63f 64f
7:50 4.5ft 15s 8s 4
mph
1016.4mb 63f 64f
6:50 4.5ft 16s 8s 4 7 mph 1016mb 63f 63f
5:50 5ft 16s 8s 11
mph
1015.3mb 64f 63f